TGPY/GND METAR and TAF weather

Enter ICAO airport designator
Station Type Date Time Source
TGPY METAR 2020/09/22 20:00 UTC NOAA

TGPY 222000Z 10013KT 9999 FEW014CB 32/26 Q1010 NOSIG CB-SSE TCU-NW


Station Type Date Time Source
TGPY Decoded METAR 2020/09/22 20:00 UTC NOAA

Point Salines Airport, Grenada (TGPY) 12-00N 061-47W 7M
Sep 22, 2020 - 04:00 PM EDT / 2020.09.22 2000 UTC
Wind: from the E (100 degrees) at 15 MPH (13 KT):0
Visibility: greater than 7 mile(s):0
Sky conditions: mostly clear
Weather: Cumulonimbus clouds, towering cumulus clouds observed
Temperature: 89 F (32 C)
Heat index: 102.9 F (39.4 C):1
Dew Point: 78 F (26 C)
Relative Humidity: 70%
Pressure (altimeter): 29.83 in. Hg (1010 hPa)
ob: TGPY 222000Z 10013KT 9999 FEW014CB 32/26 Q1010 NOSIG CB-SSE TCU-NW
cycle: 20

Station Type Date Time Source
TGPY TAF 2020/09/22 18:55 UTC NOAA

TAF TGPY 221600Z 2218/2318 08014KT 9999 SCT018

Example: see airport list